createdAt,value
2019-03-16T00:01:57.380Z,18.50
2019-03-16T00:04:24.671Z,22.45
2019-03-16T00:06:53.244Z,19.37
2019-03-16T00:09:21.810Z,16.62
2019-03-16T00:11:50.798Z,18.85
2019-03-16T00:14:19.704Z,21.55
2019-03-16T00:16:48.237Z,24.75
2019-03-16T00:19:16.843Z,20.48
2019-03-16T00:21:45.377Z,29.52
2019-03-16T00:24:13.918Z,19.25
2019-03-16T00:26:42.452Z,17.95
2019-03-16T00:29:11.023Z,21.15
2019-03-16T00:31:39.570Z,22.20
2019-03-16T00:34:08.161Z,18.10
2019-03-16T00:36:36.694Z,19.52
2019-03-16T00:39:07.816Z,18.20
2019-03-16T00:41:37.048Z,21.07
2019-03-16T00:44:05.602Z,19.23
2019-03-16T00:46:34.172Z,22.58
2019-03-16T00:49:02.754Z,22.05
2019-03-16T00:51:31.945Z,21.02
2019-03-16T00:54:00.475Z,19.57
2019-03-16T00:56:28.974Z,18.30
2019-03-16T00:58:57.506Z,17.42
2019-03-16T01:01:25.999Z,20.15
2019-03-16T01:03:54.579Z,19.42
2019-03-16T01:06:23.153Z,19.32
2019-03-16T01:08:51.768Z,22.73
2019-03-16T01:11:20.280Z,21.07
2019-03-16T01:13:49.050Z,19.55
2019-03-16T01:16:17.623Z,21.48
2019-03-16T01:18:46.211Z,15.93
2019-03-16T01:21:14.779Z,15.00
2019-03-16T01:23:43.349Z,13.45
2019-03-16T01:26:11.944Z,16.82
2019-03-16T01:28:40.473Z,17.42
2019-03-16T01:31:09.026Z,15.18
2019-03-16T01:33:37.600Z,17.55
2019-03-16T01:36:06.138Z,17.75
2019-03-16T01:38:34.643Z,17.85
2019-03-16T01:41:03.254Z,14.25
2019-03-16T01:43:31.826Z,16.65
2019-03-16T01:46:00.429Z,16.20
2019-03-16T01:48:29.030Z,18.60
2019-03-16T01:50:57.579Z,19.48
2019-03-16T01:53:26.118Z,16.57
2019-03-16T01:55:54.639Z,18.80
2019-03-16T01:58:24.688Z,19.92
2019-03-16T02:00:53.287Z,20.10
2019-03-16T02:03:21.854Z,4.25
2019-03-16T02:05:50.365Z,3.22
2019-03-16T02:08:18.920Z,6.28
2019-03-16T02:10:47.479Z,4.47
2019-03-16T02:13:16.014Z,5.58
2019-03-16T02:15:44.600Z,6.58
2019-03-16T02:18:13.172Z,7.15
2019-03-16T02:20:41.711Z,7.55
2019-03-16T02:23:10.267Z,5.65
2019-03-16T02:25:38.832Z,7.67
2019-03-16T02:28:07.410Z,6.97
2019-03-16T02:30:35.941Z,10.55
2019-03-16T02:33:12.757Z,6.80
2019-03-16T02:35:34.837Z,6.40
2019-03-16T02:38:03.466Z,6.62
2019-03-16T02:40:32.065Z,5.92
2019-03-16T02:43:00.595Z,7.08
2019-03-16T02:45:29.147Z,7.75
2019-03-16T02:47:59.304Z,6.55
2019-03-16T02:50:27.777Z,6.08
2019-03-16T02:52:56.887Z,6.67
2019-03-16T02:55:25.499Z,9.33
2019-03-16T02:57:54.069Z,5.50
2019-03-16T03:00:22.702Z,10.38
2019-03-16T03:02:51.310Z,8.50
2019-03-16T03:05:19.840Z,5.87
2019-03-16T03:07:48.299Z,7.50
2019-03-16T03:10:16.965Z,6.05
2019-03-16T03:12:45.540Z,5.62
2019-03-16T03:15:14.163Z,4.33
2019-03-16T03:17:43.135Z,6.42
2019-03-16T03:20:12.002Z,6.87
2019-03-16T03:22:40.519Z,6.47
2019-03-16T03:25:09.091Z,5.30
2019-03-16T03:27:38.481Z,6.72
2019-03-16T03:30:10.315Z,6.83
2019-03-16T03:32:38.986Z,5.03
2019-03-16T03:35:09.247Z,7.90
2019-03-16T03:37:37.954Z,6.75
2019-03-16T03:40:09.136Z,6.25
2019-03-16T03:42:37.684Z,6.80
2019-03-16T03:45:09.214Z,5.42
2019-03-16T03:47:37.803Z,5.08
2019-03-16T03:50:12.512Z,4.83
2019-03-16T03:52:41.703Z,5.20
2019-03-16T03:55:11.904Z,7.15
2019-03-16T03:57:40.457Z,5.72
2019-03-16T04:00:14.590Z,3.67
2019-03-16T04:02:43.087Z,9.23
2019-03-16T04:05:12.021Z,4.10
2019-03-16T04:07:41.524Z,5.45
2019-03-16T04:10:11.720Z,3.40
2019-03-16T04:12:40.253Z,4.85
2019-03-16T04:15:12.866Z,4.55
2019-03-16T04:17:41.431Z,5.73
2019-03-16T04:20:12.693Z,6.55
2019-03-16T04:22:41.333Z,3.95
2019-03-16T04:25:10.363Z,6.00
2019-03-16T04:27:38.960Z,6.85
2019-03-16T04:30:09.850Z,9.08
2019-03-16T04:32:38.390Z,7.95
2019-03-16T04:35:07.033Z,4.80
2019-03-16T04:37:35.585Z,7.25
2019-03-16T04:40:06.065Z,4.55
2019-03-16T04:42:34.611Z,4.62
2019-03-16T04:45:03.556Z,7.55
2019-03-16T04:47:32.014Z,5.42
2019-03-16T04:50:00.502Z,9.80
2019-03-16T04:52:29.105Z,6.47
2019-03-16T04:54:57.657Z,7.30
2019-03-16T04:57:26.183Z,10.13
2019-03-16T04:59:54.759Z,6.95
2019-03-16T05:02:23.290Z,5.50
2019-03-16T05:04:51.848Z,7.50
2019-03-16T05:07:20.450Z,6.03
2019-03-16T05:09:49.018Z,11.10
2019-03-16T05:12:17.566Z,7.87
2019-03-16T05:14:46.124Z,6.70
2019-03-16T05:17:14.690Z,10.70
2019-03-16T05:19:43.221Z,6.50
2019-03-16T05:22:11.714Z,8.50
2019-03-16T05:24:40.248Z,6.00
2019-03-16T05:27:08.816Z,6.45
2019-03-16T05:29:37.373Z,7.83
2019-03-16T05:32:05.859Z,9.15
2019-03-16T05:34:34.407Z,6.87
2019-03-16T05:37:03.168Z,9.63
2019-03-16T05:39:31.726Z,6.28
2019-03-16T05:42:00.271Z,8.43
2019-03-16T05:44:28.936Z,5.62
2019-03-16T05:46:57.509Z,7.75
2019-03-16T05:49:26.030Z,8.13
2019-03-16T05:51:54.599Z,13.38
2019-03-16T05:54:23.062Z,15.98
2019-03-16T05:56:51.598Z,6.22
2019-03-16T05:59:20.155Z,14.00
2019-03-16T06:01:48.663Z,11.35
2019-03-16T06:04:17.204Z,6.05
2019-03-16T06:06:45.828Z,13.85
2019-03-16T06:09:14.358Z,9.40
2019-03-16T06:11:42.875Z,6.50
2019-03-16T06:14:11.448Z,10.43
2019-03-16T06:16:40.031Z,6.60
2019-03-16T06:19:08.613Z,8.35
2019-03-16T06:21:37.655Z,9.40
2019-03-16T06:24:06.199Z,7.20
2019-03-16T06:26:35.378Z,11.33
2019-03-16T06:29:04.368Z,6.70
2019-03-16T06:31:32.929Z,13.15
2019-03-16T06:34:01.500Z,13.78
2019-03-16T06:36:30.126Z,7.37
2019-03-16T06:38:58.684Z,8.60
2019-03-16T06:41:27.223Z,11.83
2019-03-16T06:43:55.779Z,4.83
2019-03-16T06:46:24.244Z,10.30
2019-03-16T06:48:52.735Z,8.13
2019-03-16T06:51:21.326Z,10.55
2019-03-16T06:53:49.917Z,8.45
2019-03-16T06:56:18.455Z,9.55
2019-03-16T06:58:47.010Z,7.92
2019-03-16T07:01:15.548Z,6.45
2019-03-16T07:03:44.082Z,22.17
2019-03-16T07:06:12.724Z,9.08
2019-03-16T07:08:41.310Z,7.35
2019-03-16T07:11:09.818Z,11.05
2019-03-16T07:13:38.423Z,7.80
2019-03-16T07:16:07.037Z,6.00
2019-03-16T07:18:35.575Z,9.40
2019-03-16T07:21:04.707Z,8.83
2019-03-16T07:23:33.314Z,6.87
2019-03-16T07:26:14.129Z,8.20
2019-03-16T07:28:32.258Z,13.05
2019-03-16T07:31:00.826Z,8.88
2019-03-16T07:33:29.345Z,4.70
2019-03-16T07:35:58.096Z,9.33
2019-03-16T07:38:27.541Z,7.45
2019-03-16T07:40:56.330Z,13.88
2019-03-16T07:43:24.904Z,11.22
2019-03-16T07:45:53.502Z,7.20
2019-03-16T07:48:22.098Z,7.47
2019-03-16T07:50:50.710Z,9.78
2019-03-16T07:53:19.284Z,9.10
2019-03-16T07:55:47.846Z,8.45
2019-03-16T07:58:16.408Z,11.00
2019-03-16T08:00:44.946Z,10.78
2019-03-16T08:03:13.479Z,5.53
2019-03-16T08:05:42.329Z,7.62
2019-03-16T08:08:10.851Z,8.15
2019-03-16T08:10:39.418Z,7.78
2019-03-16T08:13:08.565Z,10.63
2019-03-16T08:15:37.031Z,9.05
2019-03-16T08:18:07.871Z,10.50
2019-03-16T08:20:36.353Z,10.23
2019-03-16T08:23:04.888Z,10.35
2019-03-16T08:25:33.388Z,9.58
2019-03-16T08:28:01.956Z,8.18
2019-03-16T08:30:30.522Z,11.03
2019-03-16T08:32:59.085Z,8.20
2019-03-16T08:35:27.639Z,7.33
2019-03-16T08:37:56.126Z,6.97
2019-03-16T08:40:24.695Z,8.50
2019-03-16T08:42:53.532Z,5.35
2019-03-16T08:45:22.112Z,7.40
2019-03-16T08:47:50.659Z,5.62
2019-03-16T08:50:19.262Z,8.25
2019-03-16T08:52:47.825Z,4.72
2019-03-16T08:55:16.393Z,7.65
2019-03-16T08:57:45.202Z,6.03
2019-03-16T09:00:14.840Z,5.33
2019-03-16T09:02:43.356Z,8.05
2019-03-16T09:05:12.366Z,10.75
2019-03-16T09:07:40.930Z,7.40
2019-03-16T09:10:10.378Z,7.00
2019-03-16T09:12:39.244Z,10.05
2019-03-16T09:15:16.159Z,6.62
2019-03-16T09:17:44.724Z,11.60
2019-03-16T09:20:13.360Z,8.58
2019-03-16T09:22:41.916Z,7.12
2019-03-16T09:25:11.274Z,8.55
2019-03-16T09:27:39.919Z,8.38
2019-03-16T09:30:11.657Z,6.25
2019-03-16T09:32:41.008Z,9.38
2019-03-16T09:35:09.618Z,6.90
2019-03-16T09:37:38.223Z,9.48
2019-03-16T09:40:09.576Z,14.47
2019-03-16T09:42:38.212Z,9.23
2019-03-16T09:45:11.531Z,8.05
2019-03-16T09:47:40.123Z,8.83
2019-03-16T09:50:10.100Z,6.90
2019-03-16T09:52:38.958Z,5.33
2019-03-16T09:55:12.081Z,9.18
2019-03-16T09:57:40.632Z,9.10
2019-03-16T10:00:12.431Z,8.38
2019-03-16T10:02:41.098Z,5.58
2019-03-16T10:05:10.620Z,7.62
2019-03-16T10:07:39.200Z,8.60
2019-03-16T10:10:13.040Z,8.68
2019-03-16T10:12:41.608Z,5.37
2019-03-16T10:15:14.311Z,13.45
2019-03-16T10:17:42.896Z,10.95
2019-03-16T10:20:13.317Z,8.23
2019-03-16T10:22:41.824Z,6.92
2019-03-16T10:25:11.279Z,8.53
2019-03-16T10:27:39.808Z,9.70
2019-03-16T10:30:15.080Z,7.00
2019-03-16T10:32:43.797Z,6.37
2019-03-16T10:35:12.775Z,11.15
2019-03-16T10:37:41.241Z,7.83
2019-03-16T10:40:11.643Z,6.72
2019-03-16T10:42:40.127Z,9.70
2019-03-16T10:45:10.293Z,6.15
2019-03-16T10:47:38.779Z,8.18
2019-03-16T10:50:10.619Z,8.15
2019-03-16T10:52:39.219Z,9.78
2019-03-16T10:55:08.432Z,7.22
2019-03-16T10:57:36.903Z,8.58
2019-03-16T11:00:08.479Z,10.55
2019-03-16T11:02:37.049Z,9.15
2019-03-16T11:05:06.718Z,8.15
2019-03-16T11:07:35.369Z,8.88
2019-03-16T11:10:06.606Z,7.25
2019-03-16T11:12:35.154Z,7.75
2019-03-16T11:15:05.434Z,6.40
2019-03-16T11:17:34.019Z,6.22
2019-03-16T11:20:02.599Z,5.95
2019-03-16T11:22:31.178Z,9.63
2019-03-16T11:24:59.882Z,11.08
2019-03-16T11:27:28.418Z,10.88
2019-03-16T11:29:56.993Z,10.10
2019-03-16T11:32:25.614Z,10.48
2019-03-16T11:34:54.185Z,9.55
2019-03-16T11:37:22.763Z,8.78
2019-03-16T11:39:51.453Z,7.87
2019-03-16T11:42:19.987Z,12.90
2019-03-16T11:44:48.515Z,9.95
2019-03-16T11:47:17.535Z,8.28
2019-03-16T11:49:46.068Z,6.95
2019-03-16T11:52:14.551Z,5.83
2019-03-16T11:54:43.121Z,8.48
2019-03-16T11:57:11.671Z,10.32
2019-03-16T11:59:40.728Z,9.23
2019-03-16T12:02:09.331Z,14.07
2019-03-16T12:04:37.924Z,14.78
2019-03-16T12:07:06.452Z,12.30
2019-03-16T12:09:34.944Z,11.75
2019-03-16T12:12:03.410Z,9.03
2019-03-16T12:14:31.881Z,13.65
2019-03-16T12:17:00.381Z,13.43
2019-03-16T12:19:28.945Z,5.70
2019-03-16T12:21:57.467Z,6.60
2019-03-16T12:24:26.191Z,11.43
2019-03-16T12:26:54.707Z,15.23
2019-03-16T12:29:33.548Z,13.50
2019-03-16T12:31:54.266Z,9.93
2019-03-16T12:34:22.805Z,8.00
2019-03-16T12:36:51.432Z,12.73
2019-03-16T12:39:20.138Z,12.65
2019-03-16T12:41:48.697Z,14.18
2019-03-16T12:44:17.337Z,14.90
2019-03-16T12:46:46.470Z,10.20
2019-03-16T12:49:15.026Z,12.53
2019-03-16T12:51:43.546Z,10.18
2019-03-16T12:54:13.270Z,17.15
2019-03-16T12:56:41.986Z,21.15
2019-03-16T12:59:11.082Z,15.60
2019-03-16T13:01:40.400Z,13.22
2019-03-16T13:04:09.109Z,15.93
2019-03-16T13:06:37.746Z,13.13
2019-03-16T13:09:08.353Z,14.20
2019-03-16T13:11:36.907Z,14.75
2019-03-16T13:14:05.548Z,14.40
2019-03-16T13:16:34.114Z,16.48
2019-03-16T13:19:04.309Z,15.32
2019-03-16T13:21:32.845Z,13.00
2019-03-16T13:24:01.686Z,15.72
2019-03-16T13:26:30.219Z,12.37
2019-03-16T13:28:58.766Z,11.22
2019-03-16T13:31:27.492Z,8.88
2019-03-16T13:33:56.099Z,16.15
2019-03-16T13:36:24.871Z,11.30
2019-03-16T13:38:53.479Z,12.95
2019-03-16T13:41:22.007Z,16.75
2019-03-16T13:43:50.463Z,9.08
2019-03-16T13:46:19.264Z,8.13
2019-03-16T13:48:47.831Z,13.50
2019-03-16T13:51:16.397Z,9.70
2019-03-16T13:53:45.354Z,12.50
2019-03-16T13:56:13.955Z,12.35
2019-03-16T13:58:43.011Z,14.47
2019-03-16T14:01:12.082Z,11.83
2019-03-16T14:03:40.601Z,12.65
2019-03-16T14:06:09.688Z,15.20
2019-03-16T14:08:38.373Z,10.05
2019-03-16T14:11:06.959Z,9.70
2019-03-16T14:13:35.526Z,8.55
2019-03-16T14:16:04.183Z,10.20
2019-03-16T14:18:32.728Z,11.78
2019-03-16T14:21:01.272Z,10.65
2019-03-16T14:23:29.836Z,8.35
2019-03-16T14:25:58.410Z,13.55
2019-03-16T14:28:27.263Z,9.75
2019-03-16T14:30:56.411Z,12.35
2019-03-16T14:33:25.481Z,8.90
2019-03-16T14:35:54.070Z,10.20
2019-03-16T14:38:22.624Z,10.93
2019-03-16T14:40:51.215Z,15.58
2019-03-16T14:43:19.788Z,9.23
2019-03-16T14:45:49.151Z,10.93
2019-03-16T14:48:17.914Z,10.90
2019-03-16T14:50:46.487Z,12.47
2019-03-16T14:53:15.082Z,14.23
2019-03-16T14:55:43.619Z,12.37
2019-03-16T14:58:12.422Z,14.00
2019-03-16T15:00:41.139Z,14.33
2019-03-16T15:03:09.679Z,12.47
2019-03-16T15:05:38.262Z,12.18
2019-03-16T15:08:06.857Z,12.23
2019-03-16T15:10:35.421Z,14.70
2019-03-16T15:13:04.056Z,17.20
2019-03-16T15:15:32.625Z,12.60
2019-03-16T15:18:01.252Z,15.65
2019-03-16T15:20:29.795Z,14.58
2019-03-16T15:22:58.392Z,17.20
2019-03-16T15:25:26.965Z,11.33
2019-03-16T15:27:55.498Z,12.88
2019-03-16T15:30:24.452Z,13.85
2019-03-16T15:32:52.972Z,14.60
2019-03-16T15:35:21.436Z,14.40
2019-03-16T15:37:53.062Z,14.80
2019-03-16T15:40:21.620Z,17.17
2019-03-16T15:42:50.172Z,13.15
2019-03-16T15:45:29.126Z,12.70
2019-03-16T15:47:57.662Z,20.05
2019-03-16T15:50:26.244Z,16.20
2019-03-16T15:52:54.903Z,17.92
2019-03-16T15:55:23.555Z,16.17
2019-03-16T15:57:52.193Z,16.27
2019-03-16T16:00:21.379Z,16.35
2019-03-16T16:02:50.089Z,15.88
2019-03-16T16:05:19.054Z,11.68
2019-03-16T16:07:47.975Z,16.17
2019-03-16T16:10:17.807Z,16.27
2019-03-16T16:12:46.604Z,16.67
2019-03-16T16:15:16.205Z,21.27
2019-03-16T16:17:44.764Z,14.38
2019-03-16T16:20:18.443Z,22.15
2019-03-16T16:22:47.328Z,16.65
2019-03-16T16:25:16.175Z,16.15
2019-03-16T16:27:44.952Z,15.78
2019-03-16T16:30:15.743Z,17.42
2019-03-16T16:32:44.301Z,18.17
2019-03-16T16:35:14.631Z,19.02
2019-03-16T16:37:43.414Z,23.95
2019-03-16T16:40:19.337Z,14.90
2019-03-16T16:42:48.253Z,15.43
2019-03-16T16:45:17.910Z,18.75
2019-03-16T16:47:46.625Z,14.35
2019-03-16T16:50:22.587Z,19.37
2019-03-16T16:52:51.382Z,10.58
2019-03-16T16:55:20.129Z,12.30
2019-03-16T16:57:49.252Z,17.75
2019-03-16T17:00:19.546Z,19.23
2019-03-16T17:02:48.514Z,27.45
2019-03-16T17:05:17.964Z,16.65
2019-03-16T17:07:46.700Z,17.32
2019-03-16T17:10:16.446Z,15.65
2019-03-16T17:12:45.576Z,17.25
2019-03-16T17:15:18.763Z,15.78
2019-03-16T17:17:47.554Z,15.65
2019-03-16T17:20:17.019Z,17.20
2019-03-16T17:22:46.064Z,18.02
2019-03-16T17:25:16.124Z,16.37
2019-03-16T17:27:44.831Z,21.97
2019-03-16T17:30:24.464Z,16.97
2019-03-16T17:32:53.283Z,19.17
2019-03-16T17:35:21.984Z,25.72
2019-03-16T17:37:50.752Z,21.00
2019-03-16T17:40:19.375Z,23.10
2019-03-16T17:42:48.109Z,22.22
2019-03-16T17:45:17.190Z,21.93
2019-03-16T17:47:46.026Z,19.50
2019-03-16T17:50:15.898Z,21.87
2019-03-16T17:52:44.789Z,24.02
2019-03-16T17:55:15.294Z,20.23
2019-03-16T17:57:45.453Z,21.80
2019-03-16T18:00:16.216Z,27.02
2019-03-16T18:02:51.920Z,23.42
2019-03-16T18:05:16.353Z,33.63
2019-03-16T18:07:45.227Z,25.80
2019-03-16T18:10:14.835Z,23.73
2019-03-16T18:12:43.548Z,21.87
2019-03-16T18:15:14.116Z,23.70
2019-03-16T18:17:42.992Z,22.15
2019-03-16T18:20:17.620Z,25.70
2019-03-16T18:22:48.060Z,21.40
2019-03-16T18:25:17.578Z,18.80
2019-03-16T18:27:46.372Z,28.20
2019-03-16T18:30:17.069Z,21.17
2019-03-16T18:32:45.912Z,25.32
2019-03-16T18:35:14.764Z,20.52
2019-03-16T18:37:43.466Z,22.85
2019-03-16T18:40:14.722Z,20.48
2019-03-16T18:42:43.376Z,22.62
2019-03-16T18:45:21.302Z,24.57
2019-03-16T18:47:50.375Z,20.40
2019-03-16T18:50:19.178Z,26.25
2019-03-16T18:52:48.398Z,27.93
2019-03-16T18:55:17.115Z,26.17
2019-03-16T18:57:45.852Z,28.38
2019-03-16T19:00:18.879Z,25.48
2019-03-16T19:02:47.598Z,28.20
2019-03-16T19:05:16.300Z,28.85
2019-03-16T19:07:44.930Z,23.67
2019-03-16T19:10:17.331Z,30.77
2019-03-16T19:12:46.087Z,30.40
2019-03-16T19:15:16.807Z,29.23
2019-03-16T19:17:57.489Z,24.15
2019-03-16T19:20:18.882Z,24.15
2019-03-16T19:22:47.779Z,29.23
2019-03-16T19:25:18.929Z,20.82
2019-03-16T19:27:47.606Z,20.80
2019-03-16T19:30:17.616Z,23.02
2019-03-16T19:32:46.691Z,17.92
2019-03-16T19:35:15.594Z,21.40
2019-03-16T19:37:44.485Z,24.35
2019-03-16T19:40:18.547Z,25.00
2019-03-16T19:42:47.442Z,20.40
2019-03-16T19:45:16.453Z,23.60
2019-03-16T19:47:45.385Z,30.55
2019-03-16T19:50:17.617Z,21.82
2019-03-16T19:52:46.278Z,27.13
2019-03-16T19:55:15.369Z,28.05
2019-03-16T19:57:44.256Z,32.35
2019-03-16T20:00:19.666Z,29.37
2019-03-16T20:02:51.271Z,23.02
2019-03-16T20:05:18.610Z,25.85
2019-03-16T20:07:47.766Z,35.10
2019-03-16T20:10:20.607Z,31.37
2019-03-16T20:12:52.658Z,28.07
2019-03-16T20:15:19.784Z,25.85
2019-03-16T20:17:48.562Z,31.25
2019-03-16T20:20:17.844Z,27.90
2019-03-16T20:22:46.721Z,30.20
2019-03-16T20:25:15.476Z,32.53
2019-03-16T20:27:44.498Z,33.85
2019-03-16T20:30:15.372Z,34.43
2019-03-16T20:32:44.103Z,34.65
2019-03-16T20:35:13.512Z,36.93
2019-03-16T20:37:42.598Z,34.13
2019-03-16T20:40:15.509Z,30.48
2019-03-16T20:42:44.147Z,32.42
2019-03-16T20:45:13.806Z,37.42
2019-03-16T20:47:42.930Z,35.52
2019-03-16T20:50:13.912Z,35.45
2019-03-16T20:52:42.590Z,33.30
2019-03-16T20:55:11.764Z,36.73
2019-03-16T20:57:40.409Z,36.55
2019-03-16T21:00:11.815Z,35.28
2019-03-16T21:02:40.539Z,44.58
2019-03-16T21:05:10.588Z,36.35
2019-03-16T21:07:39.426Z,49.50
2019-03-16T21:10:10.251Z,33.08
2019-03-16T21:12:39.596Z,38.05
2019-03-16T21:15:13.752Z,34.67
2019-03-16T21:17:42.434Z,37.75
2019-03-16T21:20:13.534Z,33.40
2019-03-16T21:22:42.242Z,41.30
2019-03-16T21:25:12.777Z,26.68
2019-03-16T21:27:41.468Z,32.53
2019-03-16T21:30:21.163Z,26.82
2019-03-16T21:32:49.942Z,26.50
2019-03-16T21:35:18.971Z,31.23
2019-03-16T21:37:47.692Z,27.70
2019-03-16T21:40:17.256Z,28.62
2019-03-16T21:42:45.928Z,26.15
2019-03-16T21:45:15.070Z,25.25
2019-03-16T21:47:43.804Z,24.80
2019-03-16T21:50:14.145Z,30.72
2019-03-16T21:52:44.616Z,33.40
2019-03-16T21:55:14.541Z,30.82
2019-03-16T21:57:43.518Z,35.65
2019-03-16T22:00:14.376Z,34.05
2019-03-16T22:02:43.390Z,39.13
2019-03-16T22:05:12.666Z,21.97
2019-03-16T22:07:41.724Z,26.07
2019-03-16T22:10:17.496Z,27.37
2019-03-16T22:12:46.399Z,30.82
2019-03-16T22:15:18.356Z,34.58
2019-03-16T22:17:47.596Z,29.20
2019-03-16T22:20:21.368Z,35.60
2019-03-16T22:22:50.102Z,31.17
2019-03-16T22:25:21.285Z,33.90
2019-03-16T22:27:51.895Z,28.12
2019-03-16T22:30:21.199Z,28.02
2019-03-16T22:32:49.751Z,25.32
2019-03-16T22:35:18.540Z,36.60
2019-03-16T22:37:47.276Z,30.72
2019-03-16T22:40:16.506Z,29.10
2019-03-16T22:42:45.502Z,31.05
2019-03-16T22:45:15.180Z,30.45
2019-03-16T22:47:43.868Z,25.35
2019-03-16T22:50:16.606Z,25.57
2019-03-16T22:52:45.320Z,31.65
2019-03-16T22:55:15.834Z,25.95
2019-03-16T22:57:44.427Z,27.50
2019-03-16T23:00:30.751Z,27.32
2019-03-16T23:02:59.727Z,27.95
2019-03-16T23:05:28.432Z,29.80
2019-03-16T23:07:57.080Z,34.23
2019-03-16T23:10:26.044Z,38.55
2019-03-16T23:12:54.738Z,38.42
2019-03-16T23:15:23.541Z,31.87
2019-03-16T23:17:52.916Z,30.52
2019-03-16T23:20:21.981Z,32.60
2019-03-16T23:22:50.560Z,35.35
2019-03-16T23:25:19.305Z,30.80
2019-03-16T23:27:47.825Z,33.35
2019-03-16T23:30:16.478Z,40.52
2019-03-16T23:32:45.503Z,36.60
2019-03-16T23:35:14.172Z,37.65
2019-03-16T23:37:42.931Z,37.80
2019-03-16T23:40:13.245Z,37.73
2019-03-16T23:42:41.975Z,33.38
2019-03-16T23:45:13.031Z,39.25
2019-03-16T23:47:42.109Z,35.40
2019-03-16T23:50:13.056Z,37.60
2019-03-16T23:52:42.091Z,42.23
2019-03-16T23:55:11.300Z,32.40
2019-03-16T23:57:39.966Z,35.73
